Skip to content
You are here: Gozo Weather
Gozo Weather Station for the very latest live weather conditions from Gozo and Malta
 
 TIME   TEMPERATURE   WINDSPEED   DIRECTION   HUMIDITY   BAROMETER   RAINFALL 
3:45 28.9°C (84.0°F) 22.2 kmh (13.8 mph) WSW 68% 1018.0hPa (30.06 inHg) 0.0mm (0.00 in.)
2:45 29.1°C (84.4 °F) 25.9 kmh (16.1 mph) WSW 68% 1018.0hPa (30.06 inHg) 0.0mm (0.00 in.)
1:45 29.0°C (84.2 °F) 25.9 kmh (16.1 mph) WSW 67% 1019.0hPa (30.09 inHg) 0.0mm (0.00 in.)
12:45 28.8°C (83.8 °F) 22.2 kmh (13.8 mph) WSW 68% 1019.0hPa (30.09 inHg) 0.0mm (0.00 in.)
11:45 28.5°C (83.3 °F) 24.1 kmh (15.0 mph) WSW 70% 1019.0hPa (30.09 inHg) 0.0mm (0.00 in.)
10:45 27.7°C (81.9 °F) 18.5 kmh (11.5 mph) WSW 71% 1018.0hPa (30.06 inHg) 0.0mm (0.00 in.)
9:45 27.0°C (80.6 °F) 16.7 kmh (10.4 mph) WSW 75% 1018.0hPa (30.06 inHg) 0.0mm (0.00 in.)
8:37 26.3°C (79.3 °F) 18.5 kmh (11.5 mph) WSW 78% 1017.0hPa (30.03 inHg) 0.0mm (0.00 in.)
7:37 24.8°C (76.6 °F) 20.4 kmh (12.7 mph) WSW 80% 1017.0hPa (30.03 inHg) 0.0mm (0.00 in.)
6:37 24.8°C (76.6 °F) 20.4 kmh (12.7 mph) SW 80% 1017.0hPa (30.03 inHg) 0.0mm (0.00 in.)
5:37 24.9°C (76.8 °F) 13.0 kmh (8.1 mph) WSW 79% 1017.0hPa (30.03 inHg) 0.0mm (0.00 in.)
4:37 24.9°C (76.8 °F) 16.7 kmh (10.4 mph) SW 80% 1016.0hPa (30.00 inHg) 0.0mm (0.00 in.)
3:37 24.9°C (76.8 °F) 18.5 kmh (11.5 mph) WSW 79% 1017.0hPa (30.03 inHg) 0.0mm (0.00 in.)
2:37 24.9°C (76.8 °F) 14.8 kmh (9.2 mph) WSW 80% 1017.0hPa (30.03 inHg) 0.0mm (0.00 in.)
1:37 25.0°C (77.0 °F) 11.1 kmh (6.9 mph) WSW 80% 1017.0hPa (30.03 inHg) 0.0mm (0.00 in.)
12:37 24.9°C (76.8 °F) 20.4 kmh (12.7 mph) WSW 82% 1017.0hPa (30.03 inHg) 0.0mm (0.00 in.)
11:37 25.0°C (77.0 °F) 16.7 kmh (10.4 mph) WSW 82% 1017.0hPa (30.03 inHg) 0.0mm (0.00 in.)
10:37 25.3°C (77.5 °F) 18.5 kmh (11.5 mph) SW 80% 1017.0hPa (30.03 inHg) 0.0mm (0.00 in.)
9:37 25.9°C (78.6 °F) 18.5 kmh (11.5 mph) SW 74% 1017.0hPa (30.03 inHg) 0.0mm (0.00 in.)
8:37 26.2°C (79.2 °F) 13.0 kmh (8.1 mph) WSW 72% 1016.0hPa (30.00 inHg) 0.0mm (0.00 in.)
7:37 26.4°C (79.5 °F) 16.7 kmh (10.4 mph) WSW 71% 1015.0hPa (29.97 inHg) 0.0mm (0.00 in.)
6:37 26.7°C (80.1 °F) 1.9 kmh (1.2 mph) W 72% 1015.0hPa (29.97 inHg) 0.0mm (0.00 in.)
5:37 27.6°C (81.7 °F) 14.8 kmh (9.2 mph) W 72% 1015.0hPa (29.97 inHg) 0.0mm (0.00 in.)
4:37 27.8°C (82.0 °F) 24.1 kmh (15.0 mph) WSW 71% 1015.0hPa (29.97 inHg) 0.0mm (0.00 in.)

You need the latest version of Flash Player to view some of our content.


Why not download and install the latest version now?
It will only take you a moment and will ensure that you can view all the latest flash designed websites.

Translate this page

Animated Satellite

Click per aprire http://www.gozo.ws/Animation.php
copyright 2014 EUMETSAT

European Lightning Activity


Please click image for full size

Sponsored Links